sensor_id;sensor_type;location;lat;lon;timestamp;pressure;altitude;pressure_sealevel;temperature;humidity
77482;BME280;66582;43.004;-75.010;2023-01-10T00:02:03;99918.47;;;4.31;45.54
77482;BME280;66582;43.004;-75.010;2023-01-10T00:04:28;99915.51;;;2.94;48.74
77482;BME280;66582;43.004;-75.010;2023-01-10T00:06:54;99913.02;;;4.48;46.66
77482;BME280;66582;43.004;-75.010;2023-01-10T00:09:20;99902.30;;;4.83;45.30
77482;BME280;66582;43.004;-75.010;2023-01-10T00:11:46;99903.09;;;2.94;48.21
77482;BME280;66582;43.004;-75.010;2023-01-10T00:14:11;99903.14;;;3.15;49.73
77482;BME280;66582;43.004;-75.010;2023-01-10T00:16:37;99895.88;;;3.39;48.98
77482;BME280;66582;43.004;-75.010;2023-01-10T00:19:03;99899.95;;;3.74;48.82
77482;BME280;66582;43.004;-75.010;2023-01-10T00:21:28;99898.01;;;3.64;48.20
77482;BME280;66582;43.004;-75.010;2023-01-10T00:23:53;99895.49;;;4.77;47.30
77482;BME280;66582;43.004;-75.010;2023-01-10T00:26:18;99896.04;;;4.24;46.83
77482;BME280;66582;43.004;-75.010;2023-01-10T00:28:45;99895.58;;;4.70;45.84
77482;BME280;66582;43.004;-75.010;2023-01-10T00:31:10;99896.48;;;4.85;45.51
77482;BME280;66582;43.004;-75.010;2023-01-10T00:33:36;99886.06;;;4.12;47.08
77482;BME280;66582;43.004;-75.010;2023-01-10T00:36:00;99889.15;;;3.76;47.80
77482;BME280;66582;43.004;-75.010;2023-01-10T00:38:26;99889.62;;;3.85;46.50
77482;BME280;66582;43.004;-75.010;2023-01-10T00:40:50;99897.11;;;2.02;50.39
77482;BME280;66582;43.004;-75.010;2023-01-10T00:43:16;99888.28;;;2.39;51.69
77482;BME280;66582;43.004;-75.010;2023-01-10T00:45:44;99892.64;;;2.78;52.70
77482;BME280;66582;43.004;-75.010;2023-01-10T00:48:08;99887.16;;;3.12;51.89
77482;BME280;66582;43.004;-75.010;2023-01-10T00:50:33;99889.73;;;2.99;52.76
77482;BME280;66582;43.004;-75.010;2023-01-10T00:52:58;99885.00;;;2.93;52.79
77482;BME280;66582;43.004;-75.010;2023-01-10T00:55:24;99881.95;;;1.73;57.99
77482;BME280;66582;43.004;-75.010;2023-01-10T00:57:50;99880.63;;;1.82;58.23
77482;BME280;66582;43.004;-75.010;2023-01-10T01:00:16;99889.08;;;1.43;60.11
77482;BME280;66582;43.004;-75.010;2023-01-10T01:02:41;99884.00;;;2.12;59.58
77482;BME280;66582;43.004;-75.010;2023-01-10T01:05:08;99882.02;;;2.15;57.54
77482;BME280;66582;43.004;-75.010;2023-01-10T01:07:31;99880.73;;;2.37;58.96
77482;BME280;66582;43.004;-75.010;2023-01-10T01:09:57;99876.81;;;3.17;56.60
77482;BME280;66582;43.004;-75.010;2023-01-10T01:12:23;99874.33;;;3.42;55.49
77482;BME280;66582;43.004;-75.010;2023-01-10T01:14:48;99874.98;;;2.37;58.94
77482;BME280;66582;43.004;-75.010;2023-01-10T01:17:13;99871.96;;;3.02;57.72
77482;BME280;66582;43.004;-75.010;2023-01-10T01:19:44;99875.57;;;2.23;60.25
77482;BME280;66582;43.004;-75.010;2023-01-10T01:22:04;99872.52;;;2.40;59.83
77482;BME280;66582;43.004;-75.010;2023-01-10T01:24:30;99866.52;;;2.78;57.82
77482;BME280;66582;43.004;-75.010;2023-01-10T01:26:55;99874.75;;;1.65;61.26
77482;BME280;66582;43.004;-75.010;2023-01-10T01:29:21;99866.48;;;2.52;59.54
77482;BME280;66582;43.004;-75.010;2023-01-10T01:31:47;99871.47;;;2.44;60.63
77482;BME280;66582;43.004;-75.010;2023-01-10T01:34:12;99860.26;;;3.02;58.64
77482;BME280;66582;43.004;-75.010;2023-01-10T01:36:37;99859.76;;;3.41;57.94
77482;BME280;66582;43.004;-75.010;2023-01-10T01:39:03;99864.70;;;3.17;57.93
77482;BME280;66582;43.004;-75.010;2023-01-10T01:41:29;99863.78;;;2.81;60.52
77482;BME280;66582;43.004;-75.010;2023-01-10T01:44:00;99881.55;;;1.85;63.56
77482;BME280;66582;43.004;-75.010;2023-01-10T01:46:20;99873.20;;;2.23;61.17
77482;BME280;66582;43.004;-75.010;2023-01-10T01:48:45;99877.27;;;2.19;63.17
77482;BME280;66582;43.004;-75.010;2023-01-10T01:51:14;99879.79;;;2.44;61.78
77482;BME280;66582;43.004;-75.010;2023-01-10T01:53:41;99873.60;;;3.05;60.95
77482;BME280;66582;43.004;-75.010;2023-01-10T01:56:06;99877.85;;;2.17;61.71
77482;BME280;66582;43.004;-75.010;2023-01-10T01:58:35;99878.17;;;1.10;66.74
77482;BME280;66582;43.004;-75.010;2023-01-10T02:00:52;99875.84;;;2.03;65.92
77482;BME280;66582;43.004;-75.010;2023-01-10T02:03:18;99874.03;;;1.47;66.58
77482;BME280;66582;43.004;-75.010;2023-01-10T02:05:44;99880.49;;;1.67;66.47
77482;BME280;66582;43.004;-75.010;2023-01-10T02:08:10;99877.54;;;2.23;65.09
77482;BME280;66582;43.004;-75.010;2023-01-10T02:10:39;99881.74;;;1.97;64.70
77482;BME280;66582;43.004;-75.010;2023-01-10T02:13:03;99881.68;;;2.29;64.02
77482;BME280;66582;43.004;-75.010;2023-01-10T02:15:26;99887.42;;;1.25;68.69
77482;BME280;66582;43.004;-75.010;2023-01-10T02:17:52;99893.44;;;-0.31;72.86
77482;BME280;66582;43.004;-75.010;2023-01-10T02:20:17;99888.41;;;-0.45;75.26
77482;BME280;66582;43.004;-75.010;2023-01-10T02:22:58;99886.88;;;0.54;73.32
77482;BME280;66582;43.004;-75.010;2023-01-10T02:25:21;99889.80;;;0.67;73.46
77482;BME280;66582;43.004;-75.010;2023-01-10T02:27:40;99892.92;;;0.56;74.56
77482;BME280;66582;43.004;-75.010;2023-01-10T02:32:32;99877.44;;;2.35;69.22
77482;BME280;66582;43.004;-75.010;2023-01-10T02:35:00;99888.33;;;0.25;74.23
77482;BME280;66582;43.004;-75.010;2023-01-10T02:37:21;99887.47;;;0.70;73.35
77482;BME280;66582;43.004;-75.010;2023-01-10T02:39:47;99888.63;;;1.17;72.31
77482;BME280;66582;43.004;-75.010;2023-01-10T02:42:08;99887.01;;;-0.02;77.54
77482;BME280;66582;43.004;-75.010;2023-01-10T02:44:37;99893.49;;;0.38;75.12
77482;BME280;66582;43.004;-75.010;2023-01-10T02:46:57;99893.12;;;1.62;71.52
77482;BME280;66582;43.004;-75.010;2023-01-10T02:49:23;99885.86;;;0.67;72.72
77482;BME280;66582;43.004;-75.010;2023-01-10T02:51:48;99879.87;;;1.65;69.48
77482;BME280;66582;43.004;-75.010;2023-01-10T02:54:17;99890.04;;;0.89;72.56
77482;BME280;66582;43.004;-75.010;2023-01-10T02:57:03;99888.83;;;0.57;75.25
77482;BME280;66582;43.004;-75.010;2023-01-10T02:59:24;99893.70;;;0.56;74.80
77482;BME280;66582;43.004;-75.010;2023-01-10T03:01:35;99896.40;;;-0.15;77.19
77482;BME280;66582;43.004;-75.010;2023-01-10T03:04:01;99900.00;;;-0.93;81.63
77482;BME280;66582;43.004;-75.010;2023-01-10T03:06:26;99901.89;;;0.45;78.79
77482;BME280;66582;43.004;-75.010;2023-01-10T03:08:50;99888.67;;;0.69;75.95
77482;BME280;66582;43.004;-75.010;2023-01-10T03:11:13;99888.51;;;0.06;75.77
77482;BME280;66582;43.004;-75.010;2023-01-10T03:13:45;99899.25;;;0.76;74.12
77482;BME280;66582;43.004;-75.010;2023-01-10T03:16:07;99886.02;;;1.18;72.14
77482;BME280;66582;43.004;-75.010;2023-01-10T03:18:33;99885.40;;;1.09;69.32
77482;BME280;66582;43.004;-75.010;2023-01-10T03:20:57;99884.31;;;1.43;70.42
77482;BME280;66582;43.004;-75.010;2023-01-10T03:23:21;99893.74;;;0.76;71.40
77482;BME280;66582;43.004;-75.010;2023-01-10T03:25:47;99894.10;;;0.18;73.25
77482;BME280;66582;43.004;-75.010;2023-01-10T03:28:14;99882.91;;;0.82;73.10
77482;BME280;66582;43.004;-75.010;2023-01-10T03:30:41;99883.62;;;0.26;74.43
77482;BME280;66582;43.004;-75.010;2023-01-10T03:33:02;99887.48;;;-0.36;76.02
77482;BME280;66582;43.004;-75.010;2023-01-10T03:35:32;99888.49;;;0.58;75.42
77482;BME280;66582;43.004;-75.010;2023-01-10T03:37:56;99890.01;;;1.33;70.80
77482;BME280;66582;43.004;-75.010;2023-01-10T03:40:23;99906.39;;;0.38;73.04
77482;BME280;66582;43.004;-75.010;2023-01-10T03:42:48;99902.78;;;0.74;72.86
77482;BME280;66582;43.004;-75.010;2023-01-10T03:45:10;99896.15;;;0.08;72.89
77482;BME280;66582;43.004;-75.010;2023-01-10T03:47:39;99902.99;;;0.87;72.49
77482;BME280;66582;43.004;-75.010;2023-01-10T03:50:03;99898.12;;;0.74;72.09
77482;BME280;66582;43.004;-75.010;2023-01-10T03:52:24;99897.06;;;0.16;72.92
77482;BME280;66582;43.004;-75.010;2023-01-10T03:54:55;99896.85;;;1.08;72.52
77482;BME280;66582;43.004;-75.010;2023-01-10T03:57:17;99900.06;;;1.81;68.64
77482;BME280;66582;43.004;-75.010;2023-01-10T03:59:41;99886.70;;;1.98;68.16
77482;BME280;66582;43.004;-75.010;2023-01-10T04:02:06;99887.13;;;1.63;67.22
77482;BME280;66582;43.004;-75.010;2023-01-10T04:04:32;99880.29;;;0.87;67.62
77482;BME280;66582;43.004;-75.010;2023-01-10T04:06:57;99893.38;;;0.74;72.48
77482;BME280;66582;43.004;-75.010;2023-01-10T04:09:23;99877.01;;;1.49;70.59
77482;BME280;66582;43.004;-75.010;2023-01-10T04:11:49;99875.69;;;0.95;70.01
77482;BME280;66582;43.004;-75.010;2023-01-10T04:14:14;99878.51;;;1.10;69.26
77482;BME280;66582;43.004;-75.010;2023-01-10T04:16:40;99886.46;;;0.56;69.35
77482;BME280;66582;43.004;-75.010;2023-01-10T04:19:05;99877.05;;;-0.37;75.12
77482;BME280;66582;43.004;-75.010;2023-01-10T04:21:30;99880.81;;;0.77;71.86
77482;BME280;66582;43.004;-75.010;2023-01-10T04:23:55;99871.34;;;1.56;69.28
77482;BME280;66582;43.004;-75.010;2023-01-10T04:26:20;99869.14;;;2.63;65.33
77482;BME280;66582;43.004;-75.010;2023-01-10T04:28:46;99871.20;;;1.80;66.28
77482;BME280;66582;43.004;-75.010;2023-01-10T04:31:11;99874.23;;;2.21;66.09
77482;BME280;66582;43.004;-75.010;2023-01-10T04:33:36;99877.23;;;0.46;70.12
77482;BME280;66582;43.004;-75.010;2023-01-10T04:36:01;99873.64;;;1.18;68.46
77482;BME280;66582;43.004;-75.010;2023-01-10T04:38:27;99872.34;;;-0.10;74.80
77482;BME280;66582;43.004;-75.010;2023-01-10T04:40:54;99871.86;;;0.70;72.47
77482;BME280;66582;43.004;-75.010;2023-01-10T04:43:18;99871.11;;;1.34;68.89
77482;BME280;66582;43.004;-75.010;2023-01-10T04:45:44;99874.20;;;0.61;72.26
77482;BME280;66582;43.004;-75.010;2023-01-10T04:48:10;99873.40;;;0.09;72.02
77482;BME280;66582;43.004;-75.010;2023-01-10T04:50:35;99854.93;;;0.10;72.78
77482;BME280;66582;43.004;-75.010;2023-01-10T04:53:01;99859.64;;;0.38;71.51
77482;BME280;66582;43.004;-75.010;2023-01-10T04:55:27;99861.66;;;0.51;72.18
77482;BME280;66582;43.004;-75.010;2023-01-10T04:57:52;99866.58;;;0.08;73.86
77482;BME280;66582;43.004;-75.010;2023-01-10T05:00:18;99865.77;;;0.94;72.22
77482;BME280;66582;43.004;-75.010;2023-01-10T05:02:43;99858.43;;;2.02;68.62
77482;BME280;66582;43.004;-75.010;2023-01-10T05:05:09;99852.37;;;0.62;68.57
77482;BME280;66582;43.004;-75.010;2023-01-10T05:07:33;99858.79;;;0.30;71.51
77482;BME280;66582;43.004;-75.010;2023-01-10T05:09:59;99866.75;;;-0.23;74.89
77482;BME280;66582;43.004;-75.010;2023-01-10T05:12:26;99867.01;;;0.75;72.74
77482;BME280;66582;43.004;-75.010;2023-01-10T05:14:50;99863.16;;;0.91;69.09
77482;BME280;66582;43.004;-75.010;2023-01-10T05:17:16;99857.42;;;1.95;66.66
77482;BME280;66582;43.004;-75.010;2023-01-10T05:19:42;99871.02;;;-0.01;72.43
77482;BME280;66582;43.004;-75.010;2023-01-10T05:22:06;99873.41;;;0.92;70.84
77482;BME280;66582;43.004;-75.010;2023-01-10T05:24:32;99868.68;;;0.60;71.95
77482;BME280;66582;43.004;-75.010;2023-01-10T05:26:58;99877.23;;;0.40;69.52
77482;BME280;66582;43.004;-75.010;2023-01-10T05:29:24;99870.74;;;0.00;73.81
77482;BME280;66582;43.004;-75.010;2023-01-10T05:31:50;99869.07;;;0.87;69.75
77482;BME280;66582;43.004;-75.010;2023-01-10T05:34:14;99863.96;;;1.44;67.01
77482;BME280;66582;43.004;-75.010;2023-01-10T05:36:40;99863.88;;;2.28;64.82
77482;BME280;66582;43.004;-75.010;2023-01-10T05:39:06;99871.64;;;1.25;65.79
77482;BME280;66582;43.004;-75.010;2023-01-10T05:41:30;99862.31;;;2.44;62.69
77482;BME280;66582;43.004;-75.010;2023-01-10T05:43:55;99866.31;;;1.44;64.35
77482;BME280;66582;43.004;-75.010;2023-01-10T05:46:21;99875.25;;;1.02;65.10
77482;BME280;66582;43.004;-75.010;2023-01-10T05:48:46;99882.46;;;0.59;69.39
77482;BME280;66582;43.004;-75.010;2023-01-10T05:51:12;99876.19;;;0.65;68.16
77482;BME280;66582;43.004;-75.010;2023-01-10T05:53:37;99874.19;;;1.09;66.67
77482;BME280;66582;43.004;-75.010;2023-01-10T05:56:03;99875.55;;;1.13;67.63
77482;BME280;66582;43.004;-75.010;2023-01-10T05:58:29;99879.24;;;0.91;68.41
77482;BME280;66582;43.004;-75.010;2023-01-10T06:00:55;99889.51;;;0.60;68.88
77482;BME280;66582;43.004;-75.010;2023-01-10T06:03:19;99870.89;;;1.06;65.55
77482;BME280;66582;43.004;-75.010;2023-01-10T06:05:45;99880.77;;;0.47;70.95
77482;BME280;66582;43.004;-75.010;2023-01-10T06:08:10;99883.22;;;0.09;72.09
77482;BME280;66582;43.004;-75.010;2023-01-10T06:10:36;99877.59;;;1.02;68.48
77482;BME280;66582;43.004;-75.010;2023-01-10T06:13:01;99873.83;;;0.52;68.47
77482;BME280;66582;43.004;-75.010;2023-01-10T06:15:26;99878.49;;;0.79;68.67
77482;BME280;66582;43.004;-75.010;2023-01-10T06:17:52;99880.26;;;1.48;65.41
77482;BME280;66582;43.004;-75.010;2023-01-10T06:20:18;99880.03;;;1.82;62.54
77482;BME280;66582;43.004;-75.010;2023-01-10T06:22:43;99886.15;;;1.40;65.37
77482;BME280;66582;43.004;-75.010;2023-01-10T06:25:10;99882.43;;;2.31;62.56
77482;BME280;66582;43.004;-75.010;2023-01-10T06:27:35;99877.63;;;2.09;61.29
77482;BME280;66582;43.004;-75.010;2023-01-10T06:30:00;99885.34;;;1.79;62.45
77482;BME280;66582;43.004;-75.010;2023-01-10T06:32:25;99884.63;;;1.51;65.16
77482;BME280;66582;43.004;-75.010;2023-01-10T06:34:51;99882.48;;;1.77;63.38
77482;BME280;66582;43.004;-75.010;2023-01-10T06:37:17;99886.94;;;0.32;67.47
77482;BME280;66582;43.004;-75.010;2023-01-10T06:39:42;99884.90;;;1.82;63.94
77482;BME280;66582;43.004;-75.010;2023-01-10T06:42:07;99880.19;;;2.41;61.68
77482;BME280;66582;43.004;-75.010;2023-01-10T06:44:33;99885.60;;;1.16;64.64
77482;BME280;66582;43.004;-75.010;2023-01-10T06:46:58;99884.73;;;2.50;61.70
77482;BME280;66582;43.004;-75.010;2023-01-10T06:49:24;99885.34;;;2.92;60.20
77482;BME280;66582;43.004;-75.010;2023-01-10T06:51:49;99894.58;;;2.43;59.58
77482;BME280;66582;43.004;-75.010;2023-01-10T06:54:15;99892.05;;;2.66;60.80
77482;BME280;66582;43.004;-75.010;2023-01-10T06:56:41;99897.44;;;2.58;60.03
77482;BME280;66582;43.004;-75.010;2023-01-10T06:59:08;99894.81;;;2.80;59.54
77482;BME280;66582;43.004;-75.010;2023-01-10T07:01:32;99905.34;;;1.83;60.12
77482;BME280;66582;43.004;-75.010;2023-01-10T07:03:57;99908.32;;;2.25;59.84
77482;BME280;66582;43.004;-75.010;2023-01-10T07:06:23;99908.22;;;2.18;60.90
77482;BME280;66582;43.004;-75.010;2023-01-10T07:08:49;99915.66;;;2.46;60.39
77482;BME280;66582;43.004;-75.010;2023-01-10T07:11:16;99931.78;;;1.89;62.03
77482;BME280;66582;43.004;-75.010;2023-01-10T07:13:40;99936.65;;;1.54;63.86
77482;BME280;66582;43.004;-75.010;2023-01-10T07:16:07;99938.64;;;1.32;64.79
77482;BME280;66582;43.004;-75.010;2023-01-10T07:18:32;99931.92;;;2.48;60.71
77482;BME280;66582;43.004;-75.010;2023-01-10T07:20:57;99940.16;;;2.11;62.18
77482;BME280;66582;43.004;-75.010;2023-01-10T07:23:22;99943.13;;;1.52;62.90
77482;BME280;66582;43.004;-75.010;2023-01-10T07:25:48;99950.13;;;1.96;62.67
77482;BME280;66582;43.004;-75.010;2023-01-10T07:28:13;99958.42;;;2.60;60.59
77482;BME280;66582;43.004;-75.010;2023-01-10T07:30:39;99961.53;;;2.17;61.37
77482;BME280;66582;43.004;-75.010;2023-01-10T07:33:04;99975.71;;;1.68;62.65
77482;BME280;66582;43.004;-75.010;2023-01-10T07:35:30;99970.33;;;2.02;62.03
77482;BME280;66582;43.004;-75.010;2023-01-10T07:37:58;99972.91;;;1.34;63.83
77482;BME280;66582;43.004;-75.010;2023-01-10T07:40:21;99970.58;;;2.41;61.36
77482;BME280;66582;43.004;-75.010;2023-01-10T07:42:47;99970.26;;;2.99;59.35
77482;BME280;66582;43.004;-75.010;2023-01-10T07:45:12;99967.98;;;3.17;57.53
77482;BME280;66582;43.004;-75.010;2023-01-10T07:47:38;99979.51;;;3.09;57.86
77482;BME280;66582;43.004;-75.010;2023-01-10T07:50:03;99970.86;;;2.45;61.70
77482;BME280;66582;43.004;-75.010;2023-01-10T07:52:29;99976.39;;;2.46;61.98
77482;BME280;66582;43.004;-75.010;2023-01-10T07:54:54;99977.94;;;2.84;60.92
77482;BME280;66582;43.004;-75.010;2023-01-10T07:59:45;99972.05;;;3.59;59.99
77482;BME280;66582;43.004;-75.010;2023-01-10T08:02:11;99967.01;;;3.51;59.24
77482;BME280;66582;43.004;-75.010;2023-01-10T08:04:36;99971.79;;;2.51;59.66
77482;BME280;66582;43.004;-75.010;2023-01-10T08:07:01;99965.99;;;2.68;61.01
77482;BME280;66582;43.004;-75.010;2023-01-10T08:09:27;99973.03;;;2.25;61.65
77482;BME280;66582;43.004;-75.010;2023-01-10T08:11:53;99964.08;;;2.19;61.25
77482;BME280;66582;43.004;-75.010;2023-01-10T08:14:18;99968.29;;;2.24;59.75
77482;BME280;66582;43.004;-75.010;2023-01-10T08:16:44;99967.39;;;2.38;61.81
77482;BME280;66582;43.004;-75.010;2023-01-10T08:19:09;99978.23;;;1.89;63.07
77482;BME280;66582;43.004;-75.010;2023-01-10T08:21:35;99977.55;;;2.08;63.16
77482;BME280;66582;43.004;-75.010;2023-01-10T08:24:01;99970.77;;;2.63;62.34
77482;BME280;66582;43.004;-75.010;2023-01-10T08:26:26;99981.60;;;2.45;63.65
77482;BME280;66582;43.004;-75.010;2023-01-10T08:28:51;99977.42;;;2.46;62.84
77482;BME280;66582;43.004;-75.010;2023-01-10T08:31:16;99984.80;;;2.32;62.99
77482;BME280;66582;43.004;-75.010;2023-01-10T08:33:42;99986.22;;;2.49;62.33
77482;BME280;66582;43.004;-75.010;2023-01-10T08:36:14;99983.67;;;2.23;62.51
77482;BME280;66582;43.004;-75.010;2023-01-10T08:38:33;99987.20;;;1.36;64.84
77482;BME280;66582;43.004;-75.010;2023-01-10T08:40:59;99982.54;;;2.21;63.03
77482;BME280;66582;43.004;-75.010;2023-01-10T08:43:24;99983.26;;;2.41;62.73
77482;BME280;66582;43.004;-75.010;2023-01-10T08:45:49;99982.38;;;2.61;62.13
77482;BME280;66582;43.004;-75.010;2023-01-10T08:48:15;99980.65;;;3.25;60.43
77482;BME280;66582;43.004;-75.010;2023-01-10T08:50:40;99987.88;;;0.58;67.30
77482;BME280;66582;43.004;-75.010;2023-01-10T08:53:06;99995.72;;;-0.36;73.88
77482;BME280;66582;43.004;-75.010;2023-01-10T08:55:31;99990.00;;;1.83;67.61
77482;BME280;66582;43.004;-75.010;2023-01-10T08:57:58;99987.04;;;2.45;64.30
77482;BME280;66582;43.004;-75.010;2023-01-10T09:00:23;99987.37;;;2.57;63.52
77482;BME280;66582;43.004;-75.010;2023-01-10T09:02:48;99988.62;;;2.91;61.76
77482;BME280;66582;43.004;-75.010;2023-01-10T09:05:13;99983.05;;;3.70;60.07
77482;BME280;66582;43.004;-75.010;2023-01-10T09:07:39;100001.03;;;1.04;69.17
77482;BME280;66582;43.004;-75.010;2023-01-10T09:10:05;100008.02;;;-0.02;73.21
77482;BME280;66582;43.004;-75.010;2023-01-10T09:12:30;100002.60;;;1.06;70.77
77482;BME280;66582;43.004;-75.010;2023-01-10T09:14:56;99988.52;;;2.41;65.25
77482;BME280;66582;43.004;-75.010;2023-01-10T09:17:21;99994.37;;;2.05;64.56
77482;BME280;66582;43.004;-75.010;2023-01-10T09:19:46;99997.22;;;1.44;67.95
77482;BME280;66582;43.004;-75.010;2023-01-10T09:22:11;99989.99;;;2.62;64.40
77482;BME280;66582;43.004;-75.010;2023-01-10T09:24:37;99999.28;;;-0.10;72.80
77482;BME280;66582;43.004;-75.010;2023-01-10T09:27:02;100004.34;;;0.11;74.20
77482;BME280;66582;43.004;-75.010;2023-01-10T09:29:28;99998.50;;;1.26;70.41
77482;BME280;66582;43.004;-75.010;2023-01-10T09:31:53;99993.46;;;2.48;66.06
77482;BME280;66582;43.004;-75.010;2023-01-10T09:34:19;99993.35;;;2.57;64.84
77482;BME280;66582;43.004;-75.010;2023-01-10T09:36:44;100001.55;;;1.88;66.15
77482;BME280;66582;43.004;-75.010;2023-01-10T09:39:09;99995.03;;;1.70;67.91
77482;BME280;66582;43.004;-75.010;2023-01-10T09:41:50;99994.68;;;1.57;67.00
77482;BME280;66582;43.004;-75.010;2023-01-10T09:44:04;99998.07;;;1.82;66.72
77482;BME280;66582;43.004;-75.010;2023-01-10T09:46:33;99994.40;;;2.57;65.08
77482;BME280;66582;43.004;-75.010;2023-01-10T09:48:55;99985.00;;;2.78;64.61
77482;BME280;66582;43.004;-75.010;2023-01-10T09:51:27;99994.70;;;2.05;65.51
77482;BME280;66582;43.004;-75.010;2023-01-10T09:53:44;100003.92;;;1.26;69.59
77482;BME280;66582;43.004;-75.010;2023-01-10T09:56:08;100001.72;;;1.45;68.97
77482;BME280;66582;43.004;-75.010;2023-01-10T09:58:34;100000.93;;;1.27;71.07
77482;BME280;66582;43.004;-75.010;2023-01-10T10:00:59;99997.15;;;0.68;70.66
77482;BME280;66582;43.004;-75.010;2023-01-10T10:03:29;99996.63;;;0.16;71.53
77482;BME280;66582;43.004;-75.010;2023-01-10T10:05:49;100006.46;;;0.79;74.09
77482;BME280;66582;43.004;-75.010;2023-01-10T10:08:17;100010.13;;;1.13;72.30
77482;BME280;66582;43.004;-75.010;2023-01-10T10:10:42;100012.64;;;1.72;69.80
77482;BME280;66582;43.004;-75.010;2023-01-10T10:13:15;100004.91;;;3.18;64.91
77482;BME280;66582;43.004;-75.010;2023-01-10T10:15:34;100005.09;;;3.95;61.23
77482;BME280;66582;43.004;-75.010;2023-01-10T10:18:03;100011.19;;;3.85;60.35
77482;BME280;66582;43.004;-75.010;2023-01-10T10:20:26;100019.78;;;2.35;61.97
77482;BME280;66582;43.004;-75.010;2023-01-10T10:22:55;100017.43;;;3.36;61.19
77482;BME280;66582;43.004;-75.010;2023-01-10T10:25:24;100019.55;;;4.06;58.53
77482;BME280;66582;43.004;-75.010;2023-01-10T10:27:45;100031.06;;;3.19;61.22
77482;BME280;66582;43.004;-75.010;2023-01-10T10:30:15;100032.99;;;2.78;61.85
77482;BME280;66582;43.004;-75.010;2023-01-10T10:32:43;100035.81;;;3.66;59.96
77482;BME280;66582;43.004;-75.010;2023-01-10T10:34:57;100051.20;;;2.48;63.15
77482;BME280;66582;43.004;-75.010;2023-01-10T10:37:22;100056.45;;;3.36;61.65
77482;BME280;66582;43.004;-75.010;2023-01-10T10:39:50;100062.99;;;2.77;63.98
77482;BME280;66582;43.004;-75.010;2023-01-10T10:42:14;100067.86;;;1.75;66.73
77482;BME280;66582;43.004;-75.010;2023-01-10T10:44:40;100069.75;;;2.80;64.55
77482;BME280;66582;43.004;-75.010;2023-01-10T10:47:05;100066.21;;;3.05;62.86
77482;BME280;66582;43.004;-75.010;2023-01-10T10:49:35;100063.31;;;3.68;60.59
77482;BME280;66582;43.004;-75.010;2023-01-10T10:51:53;100070.92;;;2.63;61.44
77482;BME280;66582;43.004;-75.010;2023-01-10T10:54:19;100068.36;;;3.62;61.39
77482;BME280;66582;43.004;-75.010;2023-01-10T10:56:45;100080.59;;;2.02;66.44
77482;BME280;66582;43.004;-75.010;2023-01-10T10:59:16;100087.19;;;2.42;65.88
77482;BME280;66582;43.004;-75.010;2023-01-10T11:01:36;100097.57;;;1.23;68.21
77482;BME280;66582;43.004;-75.010;2023-01-10T11:04:07;100099.62;;;1.81;68.75
77482;BME280;66582;43.004;-75.010;2023-01-10T11:06:29;100099.78;;;2.03;68.21
77482;BME280;66582;43.004;-75.010;2023-01-10T11:08:54;100104.47;;;2.33;67.64
77482;BME280;66582;43.004;-75.010;2023-01-10T11:11:21;100112.71;;;1.17;71.44
77482;BME280;66582;43.004;-75.010;2023-01-10T11:13:50;100112.26;;;2.29;67.33
77482;BME280;66582;43.004;-75.010;2023-01-10T11:16:24;100119.19;;;1.38;68.95
77482;BME280;66582;43.004;-75.010;2023-01-10T11:18:37;100118.05;;;1.83;66.13
77482;BME280;66582;43.004;-75.010;2023-01-10T11:21:02;100120.42;;;2.30;64.66
77482;BME280;66582;43.004;-75.010;2023-01-10T11:23:35;100122.47;;;2.19;64.69
77482;BME280;66582;43.004;-75.010;2023-01-10T11:25:51;100122.75;;;2.41;63.78
77482;BME280;66582;43.004;-75.010;2023-01-10T11:28:16;100129.39;;;1.70;66.34
77482;BME280;66582;43.004;-75.010;2023-01-10T11:30:45;100126.85;;;2.09;64.85
77482;BME280;66582;43.004;-75.010;2023-01-10T11:33:16;100131.15;;;2.74;63.28
77482;BME280;66582;43.004;-75.010;2023-01-10T11:35:34;100134.03;;;1.96;64.34
77482;BME280;66582;43.004;-75.010;2023-01-10T11:38:00;100127.89;;;2.31;62.57
77482;BME280;66582;43.004;-75.010;2023-01-10T11:40:24;100132.01;;;2.61;63.23
77482;BME280;66582;43.004;-75.010;2023-01-10T11:42:48;100136.73;;;1.52;67.61
77482;BME280;66582;43.004;-75.010;2023-01-10T11:45:28;100136.30;;;1.64;65.82
77482;BME280;66582;43.004;-75.010;2023-01-10T11:47:40;100137.69;;;3.11;61.56
77482;BME280;66582;43.004;-75.010;2023-01-10T11:50:08;100140.62;;;3.13;60.88
77482;BME280;66582;43.004;-75.010;2023-01-10T11:52:29;100142.53;;;1.49;64.28
77482;BME280;66582;43.004;-75.010;2023-01-10T11:54:54;100148.25;;;2.12;63.82
77482;BME280;66582;43.004;-75.010;2023-01-10T11:57:21;100153.52;;;0.71;67.75
77482;BME280;66582;43.004;-75.010;2023-01-10T11:59:49;100156.94;;;2.40;63.11
77482;BME280;66582;43.004;-75.010;2023-01-10T12:02:15;100160.90;;;2.87;60.67
77482;BME280;66582;43.004;-75.010;2023-01-10T12:04:40;100172.06;;;3.06;60.53
77482;BME280;66582;43.004;-75.010;2023-01-10T12:07:03;100174.80;;;1.84;62.18
77482;BME280;66582;43.004;-75.010;2023-01-10T12:09:35;100177.38;;;2.00;62.33
77482;BME280;66582;43.004;-75.010;2023-01-10T12:14:19;100183.66;;;1.39;62.28
77482;BME280;66582;43.004;-75.010;2023-01-10T12:16:40;100184.65;;;2.39;61.18
77482;BME280;66582;43.004;-75.010;2023-01-10T12:19:10;100191.63;;;3.30;58.81
77482;BME280;66582;43.004;-75.010;2023-01-10T12:21:36;100192.68;;;2.90;58.60
77482;BME280;66582;43.004;-75.010;2023-01-10T12:23:59;100194.38;;;2.47;57.94
77482;BME280;66582;43.004;-75.010;2023-01-10T12:26:21;100196.31;;;3.02;56.95
77482;BME280;66582;43.004;-75.010;2023-01-10T12:28:51;100185.86;;;3.31;56.05
77482;BME280;66582;43.004;-75.010;2023-01-10T12:31:13;100193.90;;;2.41;57.61
77482;BME280;66582;43.004;-75.010;2023-01-10T12:33:40;100199.68;;;3.03;57.12
77482;BME280;66582;43.004;-75.010;2023-01-10T12:36:10;100199.08;;;2.63;56.60
77482;BME280;66582;43.004;-75.010;2023-01-10T12:38:31;100199.55;;;2.93;55.53
77482;BME280;66582;43.004;-75.010;2023-01-10T12:40:56;100205.51;;;2.87;55.17
77482;BME280;66582;43.004;-75.010;2023-01-10T12:43:20;100211.73;;;2.50;54.44
77482;BME280;66582;43.004;-75.010;2023-01-10T12:45:47;100215.91;;;2.68;54.29